createdAt,value
2022-12-17T00:01:28.364Z,-5.50
2022-12-17T00:04:31.929Z,-5.40
2022-12-17T00:07:29.902Z,-5.40
2022-12-17T00:10:31.270Z,-5.50
2022-12-17T00:13:27.229Z,-5.50
2022-12-17T00:16:21.678Z,-5.50
2022-12-17T00:19:17.814Z,-5.50
2022-12-17T00:22:16.349Z,-5.50
2022-12-17T00:25:14.970Z,-5.50
2022-12-17T00:28:07.508Z,-5.50
2022-12-17T00:31:05.209Z,-5.50
2022-12-17T00:34:09.796Z,-5.40
2022-12-17T00:37:21.823Z,-5.40
2022-12-17T00:40:38.237Z,-5.40
2022-12-17T00:43:37.817Z,-5.40
2022-12-17T00:46:42.690Z,-5.40
2022-12-17T00:49:29.286Z,-5.40
2022-12-17T00:52:41.599Z,-5.40
2022-12-17T00:55:38.720Z,-5.40
2022-12-17T00:58:34.429Z,-5.40
2022-12-17T01:01:33.736Z,-5.40
2022-12-17T01:04:34.373Z,-5.40
2022-12-17T01:07:46.281Z,-5.40
2022-12-17T01:10:43.309Z,-5.40
2022-12-17T01:13:45.672Z,-5.40
2022-12-17T01:16:59.932Z,-5.40
2022-12-17T01:20:20.133Z,-5.40
2022-12-17T01:23:15.093Z,-5.40
2022-12-17T01:26:19.839Z,-5.40
2022-12-17T01:29:12.422Z,-5.30
2022-12-17T01:32:07.398Z,-5.40
2022-12-17T01:35:02.250Z,-5.40
2022-12-17T01:38:06.504Z,-5.40
2022-12-17T01:41:10.004Z,-5.40
2022-12-17T01:44:10.104Z,-5.50
2022-12-17T01:47:13.107Z,-5.50
2022-12-17T01:49:59.747Z,-5.40
2022-12-17T01:52:48.449Z,-5.30
2022-12-17T01:55:42.867Z,-5.40
2022-12-17T01:58:32.988Z,-5.40
2022-12-17T02:01:26.306Z,-5.40
2022-12-17T02:04:19.549Z,-5.40
2022-12-17T02:07:34.343Z,-5.30
2022-12-17T02:10:44.615Z,-5.40
2022-12-17T02:13:39.917Z,-5.30
2022-12-17T02:16:36.186Z,-5.40
2022-12-17T02:19:47.266Z,-5.40
2022-12-17T02:22:51.431Z,-5.40
2022-12-17T02:26:03.013Z,-5.50
2022-12-17T02:29:06.825Z,-5.40
2022-12-17T02:32:09.708Z,-5.50
2022-12-17T02:35:07.693Z,-5.50
2022-12-17T02:38:15.417Z,-5.50
2022-12-17T02:41:14.432Z,-5.50
2022-12-17T02:44:07.839Z,-5.50
2022-12-17T02:47:09.085Z,-5.50
2022-12-17T02:50:14.849Z,-5.50
2022-12-17T02:53:10.326Z,-5.50
2022-12-17T02:55:59.288Z,-5.40
2022-12-17T03:02:01.557Z,-5.40
2022-12-17T03:05:35.593Z,-5.40
2022-12-17T03:08:27.996Z,-5.40
2022-12-17T03:11:25.936Z,-5.40
2022-12-17T03:14:32.843Z,-5.40
2022-12-17T03:17:27.427Z,-5.40
2022-12-17T03:20:21.716Z,-5.40
2022-12-17T03:23:11.549Z,-5.40
2022-12-17T03:26:11.543Z,-5.40
2022-12-17T03:29:03.426Z,-5.40
2022-12-17T03:32:03.961Z,-5.50
2022-12-17T03:35:05.786Z,-5.40
2022-12-17T03:38:06.003Z,-5.40
2022-12-17T03:40:55.049Z,-5.40
2022-12-17T03:43:50.357Z,-5.30
2022-12-17T03:46:50.688Z,-5.30
2022-12-17T03:49:52.380Z,-5.40
2022-12-17T03:52:47.867Z,-5.40
2022-12-17T03:55:44.310Z,-5.30
2022-12-17T03:58:37.613Z,-5.40
2022-12-17T04:01:37.247Z,-5.40
2022-12-17T04:04:32.178Z,-5.40
2022-12-17T04:07:54.572Z,-5.30
2022-12-17T04:11:28.465Z,-5.40
2022-12-17T04:14:33.014Z,-5.40
2022-12-17T04:17:37.800Z,-5.30
2022-12-17T04:20:46.537Z,-5.30
2022-12-17T04:23:39.324Z,-5.30
2022-12-17T04:27:22.908Z,-5.30
2022-12-17T04:30:30.693Z,-5.30
2022-12-17T04:33:34.036Z,-5.30
2022-12-17T04:36:29.597Z,-5.30
2022-12-17T04:39:37.355Z,-5.30
2022-12-17T04:43:00.082Z,-5.30
2022-12-17T04:45:59.214Z,-5.30
2022-12-17T04:49:00.802Z,-5.30
2022-12-17T04:52:01.756Z,-5.20
2022-12-17T04:55:05.580Z,-5.30
2022-12-17T04:58:15.490Z,-5.30
2022-12-17T05:01:14.964Z,-5.30
2022-12-17T05:04:05.237Z,-5.30
2022-12-17T05:07:00.372Z,-5.30
2022-12-17T05:09:59.447Z,-5.30
2022-12-17T05:13:15.601Z,-5.30
2022-12-17T05:16:34.607Z,-5.30
2022-12-17T05:19:45.425Z,-5.30
2022-12-17T05:22:43.378Z,-5.30
2022-12-17T05:25:39.975Z,-5.30
2022-12-17T05:28:45.119Z,-5.30
2022-12-17T05:35:17.689Z,-5.30
2022-12-17T05:38:26.270Z,-5.30
2022-12-17T05:41:20.163Z,-5.40
2022-12-17T05:44:21.108Z,-5.40
2022-12-17T05:47:22.437Z,-5.40
2022-12-17T05:50:19.405Z,-5.40
2022-12-17T05:53:28.780Z,-5.40
2022-12-17T05:56:31.878Z,-5.40
2022-12-17T05:59:25.312Z,-5.50
2022-12-17T06:02:22.689Z,-5.50
2022-12-17T06:05:34.538Z,-5.40
2022-12-17T06:08:28.178Z,-5.50
2022-12-17T06:11:23.149Z,-5.40
2022-12-17T06:14:18.677Z,-5.40
2022-12-17T06:17:13.422Z,-5.40
2022-12-17T06:20:12.988Z,-5.40
2022-12-17T06:23:19.029Z,-5.30
2022-12-17T06:26:26.603Z,-5.30
2022-12-17T06:29:30.648Z,-5.30
2022-12-17T06:32:38.656Z,-5.20
2022-12-17T06:35:38.245Z,-5.20
2022-12-17T06:38:26.428Z,-5.10
2022-12-17T06:41:16.610Z,-5.10
2022-12-17T06:44:12.858Z,-5.10
2022-12-17T06:47:05.033Z,-5.10
2022-12-17T06:50:06.184Z,-5.10
2022-12-17T06:53:05.666Z,-5.00
2022-12-17T06:56:03.180Z,-5.00
2022-12-17T06:59:07.026Z,-5.00
2022-12-17T07:01:56.685Z,-5.00
2022-12-17T07:04:52.088Z,-4.90
2022-12-17T07:07:38.441Z,-4.90
2022-12-17T07:10:29.616Z,-4.90
2022-12-17T07:13:27.527Z,-4.90
2022-12-17T07:16:23.420Z,-4.90
2022-12-17T07:19:21.429Z,-4.90
2022-12-17T07:22:15.754Z,-4.80
2022-12-17T07:25:07.744Z,-4.80
2022-12-17T07:28:03.309Z,-4.80
2022-12-17T07:30:58.939Z,-4.70
2022-12-17T07:33:50.421Z,-4.70
2022-12-17T07:36:48.046Z,-4.60
2022-12-17T07:39:36.959Z,-4.60
2022-12-17T07:42:26.714Z,-4.50
2022-12-17T07:45:24.000Z,-4.50
2022-12-17T07:48:21.151Z,-4.40
2022-12-17T07:51:27.342Z,-4.40
2022-12-17T07:54:31.185Z,-4.40
2022-12-17T07:57:24.289Z,-4.30
2022-12-17T08:00:19.057Z,-4.20
2022-12-17T08:03:10.107Z,-4.20
2022-12-17T08:05:59.938Z,-4.20
2022-12-17T08:08:49.806Z,-4.10
2022-12-17T08:11:42.962Z,-4.10
2022-12-17T08:14:31.533Z,-4.00
2022-12-17T08:17:19.928Z,-4.00
2022-12-17T08:20:14.869Z,-4.00
2022-12-17T08:23:07.962Z,-3.90
2022-12-17T08:26:09.197Z,-3.90
2022-12-17T08:29:13.822Z,-3.90
2022-12-17T08:32:03.378Z,-3.80
2022-12-17T08:34:53.640Z,-3.80
2022-12-17T08:37:49.869Z,-3.70
2022-12-17T08:40:45.972Z,-3.60
2022-12-17T08:43:38.561Z,-3.60
2022-12-17T08:46:25.923Z,-3.40
2022-12-17T08:49:18.031Z,-3.50
2022-12-17T08:52:14.407Z,-3.50
2022-12-17T08:55:08.500Z,-3.40
2022-12-17T08:58:00.873Z,-3.40
2022-12-17T09:00:54.125Z,-3.30
2022-12-17T09:03:47.337Z,-3.30
2022-12-17T09:06:38.883Z,-3.30
2022-12-17T09:09:29.413Z,-3.20
2022-12-17T09:12:20.936Z,-3.20
2022-12-17T09:15:07.282Z,-3.20
2022-12-17T09:17:53.257Z,-3.20
2022-12-17T09:20:45.282Z,-3.20
2022-12-17T09:23:39.002Z,-3.20
2022-12-17T09:26:32.464Z,-3.20
2022-12-17T09:29:23.164Z,-3.20
2022-12-17T09:32:11.945Z,-3.10
2022-12-17T09:35:10.731Z,-3.10
2022-12-17T09:38:04.103Z,-3.10
2022-12-17T09:41:00.972Z,-3.00
2022-12-17T09:43:59.651Z,-3.00
2022-12-17T09:47:00.762Z,-2.90
2022-12-17T09:49:56.582Z,-2.90
2022-12-17T09:52:52.503Z,-2.90
2022-12-17T09:55:43.621Z,-2.80
2022-12-17T09:58:39.562Z,-2.80
2022-12-17T10:01:32.281Z,-2.80
2022-12-17T10:04:21.797Z,-2.70
2022-12-17T10:07:44.581Z,-2.70
2022-12-17T10:10:38.650Z,-2.60
2022-12-17T10:13:30.969Z,-2.60
2022-12-17T10:16:22.613Z,-2.60
2022-12-17T10:19:40.170Z,-2.60
2022-12-17T10:22:40.194Z,-2.50
2022-12-17T10:25:38.394Z,-2.50
2022-12-17T10:28:28.913Z,-2.60
2022-12-17T10:31:15.268Z,-2.60
2022-12-17T10:34:02.310Z,-2.60
2022-12-17T10:36:53.169Z,-2.70
2022-12-17T10:39:44.058Z,-2.80
2022-12-17T10:42:43.044Z,-2.70
2022-12-17T10:45:46.957Z,-2.70
2022-12-17T10:48:50.321Z,-2.70
2022-12-17T10:51:44.114Z,-2.70
2022-12-17T10:54:45.447Z,-2.60
2022-12-17T10:57:59.169Z,-2.60
2022-12-17T11:01:11.548Z,-2.50
2022-12-17T11:04:22.188Z,-2.50
2022-12-17T11:07:21.656Z,-2.50
2022-12-17T11:10:23.192Z,-2.60
2022-12-17T11:13:23.185Z,-2.60
2022-12-17T11:16:25.427Z,-2.60
2022-12-17T11:19:52.390Z,-2.50
2022-12-17T11:23:03.199Z,-2.50
2022-12-17T11:26:07.664Z,-2.50
2022-12-17T11:29:05.201Z,-2.50
2022-12-17T11:32:20.608Z,-2.60
2022-12-17T11:35:30.935Z,-2.60
2022-12-17T11:38:52.203Z,-2.60
2022-12-17T11:42:11.250Z,-2.70
2022-12-17T11:45:20.614Z,-2.70
2022-12-17T11:48:19.202Z,-2.60
2022-12-17T11:51:41.657Z,-2.50
2022-12-17T11:58:27.453Z,-2.70
2022-12-17T12:01:33.103Z,-2.70
2022-12-17T12:04:48.257Z,-2.50
2022-12-17T12:07:55.160Z,-2.50
2022-12-17T12:11:06.147Z,-2.60
2022-12-17T12:14:10.084Z,-2.70
2022-12-17T12:17:17.738Z,-2.80
2022-12-17T12:20:26.957Z,-2.90
2022-12-17T12:23:41.892Z,-2.90
2022-12-17T12:26:44.955Z,-2.90
2022-12-17T12:29:48.229Z,-2.90
2022-12-17T12:32:45.710Z,-3.00
2022-12-17T12:35:59.845Z,-3.00
2022-12-17T12:39:10.088Z,-3.00
2022-12-17T12:42:17.418Z,-3.00
2022-12-17T12:45:26.022Z,-3.10
2022-12-17T12:48:43.329Z,-3.20
2022-12-17T12:51:46.001Z,-3.20
2022-12-17T12:54:55.461Z,-3.10
2022-12-17T12:58:01.124Z,-3.00
2022-12-17T13:00:58.321Z,-2.80
2022-12-17T13:03:47.942Z,-2.90
2022-12-17T13:07:04.082Z,-2.80
2022-12-17T13:10:08.303Z,-2.70
2022-12-17T13:16:40.492Z,-2.50
2022-12-17T13:19:43.366Z,-2.50
2022-12-17T13:22:40.686Z,-2.60
2022-12-17T13:25:23.902Z,-2.70
2022-12-17T13:28:35.110Z,-2.80
2022-12-17T13:31:08.826Z,-2.90
2022-12-17T13:33:48.165Z,-2.90
2022-12-17T13:36:26.389Z,-2.80
2022-12-17T13:39:03.751Z,-2.80
2022-12-17T13:41:34.521Z,-2.80
2022-12-17T13:44:17.416Z,-2.80
2022-12-17T13:47:03.871Z,-2.80
2022-12-17T13:49:39.877Z,-2.70
2022-12-17T13:52:18.387Z,-2.70
2022-12-17T13:54:47.150Z,-2.70
2022-12-17T13:57:20.974Z,-2.80
2022-12-17T13:59:56.925Z,-2.80
2022-12-17T14:02:28.183Z,-2.80
2022-12-17T14:05:04.036Z,-2.90
2022-12-17T14:07:39.982Z,-3.00
2022-12-17T14:10:33.133Z,-3.10
2022-12-17T14:13:09.008Z,-3.10
2022-12-17T14:15:39.134Z,-3.10
2022-12-17T14:22:03.228Z,-3.30
2022-12-17T14:25:02.329Z,-3.30
2022-12-17T14:28:07.077Z,-3.30
2022-12-17T14:31:24.352Z,-3.30
2022-12-17T14:33:42.005Z,-3.40
2022-12-17T14:36:22.154Z,-3.40
2022-12-17T14:38:58.229Z,-3.50
2022-12-17T14:41:45.837Z,-3.60
2022-12-17T14:44:22.961Z,-3.60
2022-12-17T14:47:28.288Z,-3.60
2022-12-17T14:53:40.950Z,-3.70
2022-12-17T14:56:26.719Z,-3.80
2022-12-17T15:02:47.508Z,-3.80
2022-12-17T15:05:52.642Z,-3.90
2022-12-17T15:08:38.191Z,-3.90
2022-12-17T15:11:18.224Z,-3.90
2022-12-17T15:13:56.275Z,-3.90
2022-12-17T15:16:28.566Z,-4.00
2022-12-17T15:19:03.748Z,-4.00
2022-12-17T15:21:36.150Z,-4.10
2022-12-17T15:24:24.640Z,-4.10
2022-12-17T15:26:55.287Z,-4.10
2022-12-17T15:29:28.302Z,-4.20
2022-12-17T15:32:05.898Z,-4.10
2022-12-17T15:34:42.350Z,-4.20
2022-12-17T15:37:15.094Z,-4.20
2022-12-17T15:39:47.145Z,-4.20
2022-12-17T15:42:38.029Z,-4.20
2022-12-17T15:45:08.291Z,-4.20
2022-12-17T15:47:36.885Z,-4.30
2022-12-17T15:50:05.902Z,-4.30
2022-12-17T15:52:34.530Z,-4.30
2022-12-17T15:55:03.482Z,-4.30
2022-12-17T15:57:37.404Z,-4.30
2022-12-17T16:00:39.391Z,-4.30
2022-12-17T16:03:47.862Z,-4.30
2022-12-17T16:06:55.043Z,-4.30
2022-12-17T16:10:05.751Z,-4.30
2022-12-17T16:16:34.208Z,-4.30
2022-12-17T16:19:47.695Z,-4.40
2022-12-17T16:23:14.309Z,-4.40
2022-12-17T16:26:04.595Z,-4.40
2022-12-17T16:28:44.668Z,-4.50
2022-12-17T16:31:18.729Z,-4.50
2022-12-17T16:34:06.475Z,-4.50
2022-12-17T16:36:45.518Z,-4.50
2022-12-17T16:39:17.980Z,-4.50
2022-12-17T16:41:47.219Z,-4.50
2022-12-17T16:44:24.129Z,-4.50
2022-12-17T16:46:59.845Z,-4.60
2022-12-17T16:49:29.874Z,-4.60
2022-12-17T16:52:07.317Z,-4.60
2022-12-17T16:54:43.269Z,-4.60
2022-12-17T16:57:12.190Z,-4.50
2022-12-17T16:59:43.095Z,-4.50
2022-12-17T17:02:17.318Z,-4.60
2022-12-17T17:04:49.266Z,-4.60
2022-12-17T17:07:18.157Z,-4.60
2022-12-17T17:09:52.350Z,-4.60
2022-12-17T17:12:21.044Z,-4.60
2022-12-17T17:14:54.350Z,-4.60
2022-12-17T17:17:53.906Z,-4.60
2022-12-17T17:20:37.398Z,-4.60
2022-12-17T17:23:14.349Z,-4.60
2022-12-17T17:25:58.368Z,-4.60
2022-12-17T17:28:27.934Z,-4.60
2022-12-17T17:31:02.514Z,-4.60
2022-12-17T17:33:35.542Z,-4.60
2022-12-17T17:36:15.648Z,-4.60
2022-12-17T17:39:07.499Z,-4.50
2022-12-17T17:42:01.629Z,-4.50
2022-12-17T17:44:57.210Z,-4.60
2022-12-17T17:47:46.107Z,-4.60
2022-12-17T17:50:51.792Z,-4.60
2022-12-17T17:53:47.058Z,-4.60
2022-12-17T17:56:36.908Z,-4.60
2022-12-17T17:59:08.400Z,-4.60
2022-12-17T18:01:48.546Z,-4.60
2022-12-17T18:04:24.148Z,-4.60
2022-12-17T18:07:24.177Z,-4.60
2022-12-17T18:10:05.514Z,-4.60
2022-12-17T18:12:51.676Z,-4.60
2022-12-17T18:15:26.412Z,-4.60
2022-12-17T18:17:55.522Z,-4.70
2022-12-17T18:20:35.780Z,-4.70
2022-12-17T18:23:11.099Z,-4.70
2022-12-17T18:25:42.296Z,-4.70
2022-12-17T18:28:10.734Z,-4.80
2022-12-17T18:30:40.091Z,-4.80
2022-12-17T18:33:09.298Z,-4.80
2022-12-17T18:35:48.546Z,-4.80
2022-12-17T18:42:14.907Z,-4.70
2022-12-17T18:45:03.377Z,-4.70
2022-12-17T18:47:48.121Z,-4.70
2022-12-17T18:50:25.223Z,-4.80
2022-12-17T18:52:55.233Z,-4.80
2022-12-17T18:55:23.955Z,-4.80
2022-12-17T18:57:56.161Z,-4.70
2022-12-17T19:00:25.233Z,-4.80
2022-12-17T19:02:59.591Z,-4.80
2022-12-17T19:05:29.325Z,-4.80
2022-12-17T19:08:12.049Z,-4.70
2022-12-17T19:10:43.948Z,-4.70
2022-12-17T19:13:13.235Z,-4.70
2022-12-17T19:15:47.808Z,-4.80
2022-12-17T19:18:22.834Z,-4.80
2022-12-17T19:20:58.641Z,-4.80
2022-12-17T19:23:33.322Z,-4.80
2022-12-17T19:26:10.577Z,-4.80
2022-12-17T19:28:43.541Z,-4.80
2022-12-17T19:31:12.717Z,-4.80
2022-12-17T19:33:44.359Z,-4.80
2022-12-17T19:36:15.131Z,-4.80
2022-12-17T19:38:52.175Z,-4.80
2022-12-17T19:41:21.257Z,-4.80
2022-12-17T19:43:54.563Z,-4.80
2022-12-17T19:46:23.412Z,-4.80
2022-12-17T19:48:52.488Z,-4.80
2022-12-17T19:51:24.059Z,-4.80
2022-12-17T19:53:53.933Z,-4.80
2022-12-17T19:56:24.869Z,-4.80
2022-12-17T19:58:56.770Z,-4.80
2022-12-17T20:01:26.872Z,-4.80
2022-12-17T20:03:56.286Z,-4.80
2022-12-17T20:06:29.382Z,-4.80
2022-12-17T20:09:03.694Z,-4.80
2022-12-17T20:11:47.045Z,-4.80
2022-12-17T20:14:29.369Z,-4.80
2022-12-17T20:16:59.297Z,-4.90
2022-12-17T20:19:31.330Z,-4.90
2022-12-17T20:22:00.543Z,-4.90
2022-12-17T20:24:31.986Z,-4.90
2022-12-17T20:27:02.687Z,-4.90
2022-12-17T20:29:34.265Z,-4.90
2022-12-17T20:32:05.635Z,-4.90
2022-12-17T20:34:34.379Z,-4.90
2022-12-17T20:37:02.990Z,-5.00
2022-12-17T20:39:32.972Z,-4.90
2022-12-17T20:42:01.336Z,-5.00
2022-12-17T20:44:30.036Z,-4.90
2022-12-17T20:46:58.615Z,-5.00
2022-12-17T20:49:28.034Z,-5.00
2022-12-17T20:51:56.543Z,-5.00
2022-12-17T20:54:25.128Z,-5.10
2022-12-17T20:56:54.973Z,-5.10
2022-12-17T20:59:23.858Z,-5.10
2022-12-17T21:01:56.066Z,-5.00
2022-12-17T21:04:30.938Z,-5.10
2022-12-17T21:06:59.394Z,-5.10
2022-12-17T21:09:28.001Z,-5.10
2022-12-17T21:11:58.738Z,-5.00
2022-12-17T21:14:33.652Z,-5.00
2022-12-17T21:17:19.411Z,-5.00
2022-12-17T21:19:48.753Z,-5.00
2022-12-17T21:22:17.353Z,-5.10
2022-12-17T21:24:50.430Z,-5.10
2022-12-17T21:27:23.652Z,-5.10
2022-12-17T21:29:56.962Z,-5.00
2022-12-17T21:32:42.536Z,-5.00
2022-12-17T21:35:15.986Z,-5.00
2022-12-17T21:37:48.938Z,-5.00
2022-12-17T21:40:17.688Z,-5.00
2022-12-17T21:43:10.551Z,-5.00
2022-12-17T21:46:05.257Z,-5.00
2022-12-17T21:48:58.396Z,-5.10
2022-12-17T21:51:57.042Z,-5.10
2022-12-17T21:54:31.957Z,-5.20
2022-12-17T21:57:04.096Z,-5.10
2022-12-17T21:59:47.311Z,-5.10
2022-12-17T22:02:23.736Z,-5.20
2022-12-17T22:04:58.371Z,-5.20
2022-12-17T22:07:33.801Z,-5.20
2022-12-17T22:10:48.707Z,-5.20
2022-12-17T22:13:39.310Z,-5.20
2022-12-17T22:16:33.237Z,-5.20
2022-12-17T22:19:22.499Z,-5.20
2022-12-17T22:21:57.967Z,-5.20
2022-12-17T22:24:36.477Z,-5.20
2022-12-17T22:27:12.110Z,-5.20
2022-12-17T22:29:57.786Z,-5.30
2022-12-17T22:32:48.180Z,-5.30
2022-12-17T22:36:56.381Z,-5.30
2022-12-17T22:40:23.933Z,-5.30
2022-12-17T22:44:37.717Z,-5.30
2022-12-17T22:44:49.750Z,-5.30
2022-12-17T22:47:16.307Z,-5.30
2022-12-17T22:49:46.672Z,-5.30
2022-12-17T22:52:16.542Z,-5.30
2022-12-17T22:54:58.087Z,-5.30
2022-12-17T22:57:35.975Z,-5.30
2022-12-17T23:00:19.000Z,-5.30
2022-12-17T23:02:53.081Z,-5.30
2022-12-17T23:05:27.972Z,-5.30
2022-12-17T23:08:05.817Z,-5.30
2022-12-17T23:10:42.212Z,-5.30
2022-12-17T23:13:20.858Z,-5.30
2022-12-17T23:16:06.122Z,-5.30
2022-12-17T23:18:36.073Z,-5.40
2022-12-17T23:21:11.110Z,-5.40
2022-12-17T23:23:41.276Z,-5.40
2022-12-17T23:26:14.024Z,-5.40
2022-12-17T23:28:46.159Z,-5.40
2022-12-17T23:31:27.929Z,-5.40
2022-12-17T23:34:02.692Z,-5.40
2022-12-17T23:36:33.344Z,-5.40
2022-12-17T23:39:05.656Z,-5.40
2022-12-17T23:41:34.962Z,-5.40
2022-12-17T23:44:03.753Z,-5.40
2022-12-17T23:46:35.005Z,-5.40
2022-12-17T23:49:06.776Z,-5.40
2022-12-17T23:51:37.070Z,-5.40
2022-12-17T23:54:06.970Z,-5.40
2022-12-17T23:56:36.742Z,-5.50
2022-12-17T23:59:08.896Z,-5.50
